Flight Track Log - Related Links

Times and Time Zones

All times are in EDT time to prevent confusion due to time zone crossing. See the N140J flight status page for this flight to view local times or setup timezone preferences in your user account.

Time Position Orientation Groundspeed Altitude Reporting Facility
EDT Latitude Longitude Course Direction KTS MPH feet Rate Location/Type
Sun 02:39:48 PM 27.6833 -80.3908 10° North 134 154 1,200  Level Miami Center
Sun 02:40:48 PM 27.7356 -80.3806 10° North 129 148 1,900 700 Climbing Miami Center
Sun 02:41:48 PM 27.7756 -80.3703 13° North 137 158 2,600 650 Climbing Miami Center
Sun 02:42:48 PM 27.8111 -80.3642 North 142 163 3,200 650 Climbing Miami Center
Sun 02:43:48 PM 27.8417 -80.3981 316° Northwest 137 158 3,900 750 Climbing Miami Center
Sun 02:44:48 PM 27.8486 -80.4500 279° West 154 177 4,700 773 Climbing Miami Center
Sun 02:46:00 PM 27.8558 -80.4994 279° West 154 177 5,600 864 Climbing Miami Center
Sun 02:47:00 PM 27.8608 -80.5489 277° West 149 171 6,600 850 Climbing Miami Center
Sun 02:48:00 PM 27.8703 -80.5914 284° West 149 171 7,300 750 Climbing Miami Center
Sun 02:49:00 PM 27.8772 -80.6458 278° West 149 171 8,100 750 Climbing Miami Center
Sun 02:50:00 PM 27.8842 -80.6953 279° West 154 177 8,800 700 Climbing Miami Center
Sun 02:51:00 PM 27.8914 -80.7403 280° West 164 189 9,500 758 Climbing Miami Center
Sun 02:51:35 PM 27.9000 -80.7667 290° West 157 181 10,000 857 Climbing Orlando TRACON
Sun 02:52:17 PM 27.9000 -80.8000 270° West 154 177 10,600 722 Climbing Orlando TRACON
Sun 02:53:23 PM 27.9167 -80.8667 286° West 160 184 11,300 636 Climbing Orlando TRACON
Sun 02:54:29 PM 27.9167 -80.9167 270° West 165 190 12,000 600 Climbing Orlando TRACON
Sun 02:55:23 PM 27.9333 -80.9667 291° West 170 196 12,500 526 Climbing Orlando TRACON
Sun 02:56:23 PM 27.9500 -81.0000 300° West 171 197 13,000 526 Climbing Orlando TRACON
Sun 02:57:17 PM 27.9833 -81.0333 319° Northwest 174 200 13,500 526 Climbing Orlando TRACON
Sun 02:58:17 PM 28.0333 -81.0667 330° Northwest 176 203 14,000 238 Climbing Orlando TRACON
Sun 02:59:23 PM 28.0833 -81.1000 330° Northwest 197 227 14,000  Level Orlando TRACON
Sun 03:00:23 PM 28.1333 -81.1167 344° North 187 215 14,000  Level Orlando TRACON
Sun 03:01:18 PM 28.1667 -81.1333 336° Northwest 186 214 14,000  Level Orlando TRACON
Sun 03:02:17 PM 28.2167 -81.1500 344° North 179 206 14,000  Level Orlando TRACON
Sun 03:03:12 PM 28.2667 -81.1667 344° North 174 200 14,000  Level Orlando TRACON
Sun 03:04:12 PM 28.3000 -81.1833 336° Northwest 173 199 14,000 45 Level Orlando TRACON
Sun 03:05:24 PM 28.3667 -81.2000 348° North 175 201 14,100 48 Climbing Orlando TRACON
Sun 03:06:18 PM 28.4000 -81.2333 319° Northwest 186 214 14,100  Level Orlando TRACON
Sun 03:07:30 PM 28.4500 -81.2667 330° Northwest 182 209 14,100  Level Orlando TRACON
Sun 03:08:30 PM 28.4833 -81.3167 307° West 180 207 14,100  Level Orlando TRACON
Sun 03:09:30 PM 28.5000 -81.3667 291° West 182 209 14,100  Level Orlando TRACON
Sun 03:10:18 PM 28.5167 -81.4167 291° West 181 208 14,100  Level Orlando TRACON
Sun 03:11:18 PM 28.5167 -81.4667 270° West 179 206 14,100  Level Orlando TRACON
Sun 03:12:18 PM 28.5333 -81.5167 291° West 180 207 14,100  Level Orlando TRACON
Sun 03:13:18 PM 28.5500 -81.5833 286° West 181 208 14,100  Level Orlando TRACON
Sun 03:14:18 PM 28.5667 -81.6333 291° West 182 209 14,100  Level Orlando TRACON
Sun 03:15:24 PM 28.5833 -81.7000 286° West 181 208 14,100  Level Orlando TRACON
Sun 03:16:18 PM 28.6000 -81.7333 300° West 181 208 14,100 -50 Level Orlando TRACON
Sun 03:17:24 PM 28.6333 -81.8000 300° West 182 209 14,000  Descending Orlando TRACON
Sun 03:19:30 PM 28.6761 -81.9033 295° West 192 221 14,100 32 Climbing Jacksonville Center
Sun 03:20:30 PM 28.6953 -81.9458 297° West 187 215 14,100  Level Jacksonville Center
Sun 03:21:30 PM 28.7228 -81.9953 302° West 181 208 14,100  Level Jacksonville Center
Sun 03:22:30 PM 28.7503 -82.0400 305° West 181 208 14,100  Level Jacksonville Center
Sun 03:23:30 PM 28.7756 -82.0897 300° West 181 208 14,100  Level Jacksonville Center
Sun 03:24:30 PM 28.8050 -82.1344 307° West 181 208 14,100  Level Jacksonville Center
Sun 03:25:30 PM 28.8344 -82.1839 304° West 181 208 14,100  Level Jacksonville Center
Sun 03:26:30 PM 28.8703 -82.2239 316° Northwest 181 208 14,100  Level Jacksonville Center
Sun 03:27:30 PM 28.9039 -82.2642 314° West 181 208 14,100  Level Jacksonville Center
Sun 03:28:30 PM 28.9375 -82.3114 309° West 181 208 14,100  Level Jacksonville Center
Sun 03:29:30 PM 28.9772 -82.3514 319° Northwest 186 214 14,100  Level Jacksonville Center
Sun 03:30:30 PM 29.0131 -82.3917 315° West 186 214 14,100  Level Jacksonville Center
Sun 03:31:30 PM 29.0506 -82.4294 319° Northwest 181 208 14,100  Level Jacksonville Center
Sun 03:32:30 PM 29.0883 -82.4697 317° Northwest 181 208 14,100  Level Jacksonville Center
Sun 03:33:30 PM 29.1239 -82.5075 317° Northwest 175 201 14,100  Level Jacksonville Center
Sun 03:34:30 PM 29.1575 -82.5503 312° West 170 196 14,100  Level Jacksonville Center
Sun 03:35:30 PM 29.1889 -82.5953 309° West 175 201 14,100  Level Jacksonville Center
Sun 03:36:30 PM 29.2100 -82.6475 295° West 175 201 14,100 -50 Level Jacksonville Center
Sun 03:37:30 PM 29.2267 -82.7022 289° West 180 207 14,000 -50 Descending Jacksonville Center
Sun 03:38:30 PM 29.2350 -82.7594 279° West 185 213 14,000  Level Jacksonville Center
Sun 03:39:30 PM 29.2436 -82.8164 280° West 185 213 14,000  Level Jacksonville Center
Sun 03:40:30 PM 29.2478 -82.8736 275° West 185 213 14,000  Level Jacksonville Center
Sun 03:41:30 PM 29.2478 -82.9331 270° West 180 207 14,000  Level Jacksonville Center
Sun 03:42:30 PM 29.2478 -82.9900 270° West 180 207 14,000  Level Jacksonville Center
Sun 03:43:30 PM 29.2475 -83.0450 270° West 180 207 14,000  Level Jacksonville Center
Sun 03:44:30 PM 29.2497 -83.1019 273° West 180 207 14,000  Level Jacksonville Center
Sun 03:45:30 PM 29.2536 -83.1567 275° West 180 207 14,000  Level Jacksonville Center
Sun 03:46:30 PM 29.2597 -83.2139 277° West 180 207 14,000  Level Jacksonville Center
Sun 03:47:30 PM 29.2639 -83.2711 275° West 180 207 14,000  Level Jacksonville Center
Sun 03:48:30 PM 29.2803 -83.3258 289° West 180 207 14,000  Level Jacksonville Center
Sun 03:49:30 PM 29.3011 -83.3783 294° West 180 207 14,000  Level Jacksonville Center
Sun 03:50:30 PM 29.3197 -83.4333 291° West 186 214 14,000  Level Jacksonville Center
Sun 03:51:30 PM 29.3403 -83.4833 295° West 186 214 14,000  Level Jacksonville Center
Sun 03:52:30 PM 29.3589 -83.5383 291° West 186 214 14,000  Level Jacksonville Center
Sun 03:53:30 PM 29.3794 -83.5933 293° West 186 214 14,000  Level Jacksonville Center
Sun 03:54:30 PM 29.3978 -83.6458 292° West 186 214 14,000  Level Jacksonville Center
Sun 03:55:30 PM 29.4183 -83.6961 295° West 186 214 14,000  Level Jacksonville Center
Sun 03:56:30 PM 29.4369 -83.7464 293° West 181 208 14,000  Level Jacksonville Center
Sun 03:57:30 PM 29.4553 -83.8014 291° West 181 208 14,000  Level Jacksonville Center
Sun 03:58:30 PM 29.4739 -83.8492 294° West 176 203 14,000  Level Jacksonville Center
Sun 03:59:30 PM 29.4922 -83.9019 292° West 171 197 14,000  Level Jacksonville Center
Sun 04:00:30 PM 29.5000 -83.9567 279° West 171 197 14,000  Level Jacksonville Center
Sun 04:01:30 PM 29.4975 -84.0117 267° West 165 190 14,000  Level Jacksonville Center
Sun 04:02:31 PM 29.4969 -84.0689 269° West 165 190 14,000  Level Jacksonville Center
Sun 04:03:31 PM 29.4944 -84.1214 267° West 170 196 14,000  Level Jacksonville Center
Sun 04:04:30 PM 29.4958 -84.1761 272° West 175 201 14,000  Level Jacksonville Center
Sun 04:05:30 PM 29.4953 -84.2311 269° West 180 207 14,000  Level Jacksonville Center
Sun 04:06:30 PM 29.4969 -84.2836 272° West 175 201 14,000  Level Jacksonville Center
Sun 04:07:30 PM 29.4964 -84.3408 269° West 175 201 14,000  Level Jacksonville Center
Sun 04:08:30 PM 29.4956 -84.3933 269° West 175 201 14,000  Level Jacksonville Center
Sun 04:09:30 PM 29.4950 -84.4483 269° West 175 201 14,000  Level Jacksonville Center
Sun 04:10:30 PM 29.4986 -84.5031 274° West 175 201 14,000  Level Jacksonville Center
Sun 04:11:30 PM 29.5000 -84.5556 272° West 175 201 14,000  Level Jacksonville Center
Sun 04:12:30 PM 29.5014 -84.6106 272° West 175 201 14,000  Level Jacksonville Center
Sun 04:13:30 PM 29.5025 -84.6656 271° West 175 201 14,000  Level Jacksonville Center
Sun 04:14:30 PM 29.5019 -84.7181 269° West 175 201 14,000 -100 Level Jacksonville Center
Sun 04:15:30 PM 29.5075 -84.7681 277° West 175 201 13,800 -200 Descending Jacksonville Center
Sun 04:16:30 PM 29.5150 -84.8256 279° West 180 207 13,600 -250 Descending Jacksonville Center
Sun 04:17:30 PM 29.5244 -84.8831 281° West 180 207 13,300 -350 Descending Jacksonville Center
Sun 04:18:30 PM 29.5339 -84.9428 280° West 180 207 12,900 -400 Descending Jacksonville Center
Sun 04:19:30 PM 29.5456 -85.0028 283° West 185 213 12,500 -400 Descending Jacksonville Center
Sun 04:20:30 PM 29.5550 -85.0603 281° West 185 213 12,100 -350 Descending Jacksonville Center
Sun 04:21:30 PM 29.5644 -85.1178 281° West 185 213 11,800 -300 Descending Jacksonville Center
Sun 04:23:00 PM 29.5513 -85.1995 260° West  Level FlightAware Approximate
Sun 04:30:00 PM 29.4890 -85.5809 259° West  Level FlightAware Approximate
Sun 04:31:00 PM 29.4801 -85.6353 259° West  Level FlightAware Approximate
Sun 04:32:00 PM 29.4711 -85.6898 259° West  Level FlightAware Approximate
Sun 04:33:00 PM 29.4620 -85.7442 259° West  Level FlightAware Approximate
Sun 04:34:00 PM 29.4530 -85.7986 259° West  Level FlightAware Approximate
Sun 04:35:00 PM 29.4439 -85.8532 259° West  Level FlightAware Approximate
Sun 04:36:00 PM 29.4349 -85.9076 259° West  Level FlightAware Approximate
Sun 04:37:00 PM 29.4719 -85.9295 344° North  Level FlightAware Approximate
Sun 04:38:00 PM 29.5138 -85.9561 327° Northwest  Level FlightAware Approximate
Sun 04:39:00 PM 29.5546 -85.9856 337° Northwest  Level FlightAware Approximate
Sun 04:40:00 PM 29.5988 -86.0077 337° Northwest  Level FlightAware Approximate
Sun 04:41:00 PM 29.6430 -86.0298 337° Northwest  Level FlightAware Approximate
Sun 04:42:00 PM 29.6872 -86.0521 334° Northwest  Level FlightAware Approximate
Sun 04:43:00 PM 29.7306 -86.0762 334° Northwest  Level FlightAware Approximate
Sun 04:44:00 PM 29.7741 -86.1004 334° Northwest  Level FlightAware Approximate
Sun 04:45:00 PM 29.8175 -86.1245 334° Northwest  Level FlightAware Approximate
Sun 04:46:00 PM 29.8603 -86.1502 332° Northwest  Level FlightAware Approximate
Sun 04:47:00 PM 29.9027 -86.1767 332° Northwest  Level FlightAware Approximate
Sun 04:48:00 PM 29.9451 -86.2032 332° Northwest  Level FlightAware Approximate
Sun 04:49:00 PM 29.9877 -86.2293 333° Northwest  Level FlightAware Approximate
Sun 04:50:00 PM 30.0305 -86.2549 333° Northwest  Level FlightAware Approximate
Sun 04:51:00 PM 30.0733 -86.2806 333° Northwest  Level FlightAware Approximate
Sun 04:52:00 PM 30.1161 -86.3063 333° Northwest  Level FlightAware Approximate
Sun 04:53:00 PM 30.1594 -86.3309 335° Northwest  Level FlightAware Approximate
Sun 04:54:00 PM 30.2030 -86.3546 335° Northwest  Level FlightAware Approximate
Sun 04:55:00 PM 30.2467 -86.3784 335° Northwest  Level FlightAware Approximate
Sun 04:56:00 PM 30.2903 -86.4023 335° Northwest  Level FlightAware Approximate
Sun 04:57:00 PM 30.3336 -86.4268 333° Northwest  Level FlightAware Approximate
Sun 04:58:00 PM 30.3764 -86.4525 333° Northwest  Level FlightAware Approximate

Login

Don't have an account? Register now (free) for customized features, flight alerts, and more!